Tahitian Princess — ZCDD8 — position and weather

sailwx.info

Track history (hours):
 
Tides and Currents Weather Stations Pressure Air Temp Water Temp Dewpoint Dewpoint Depression Visibility Wind Speed Wind Dir Waves Ship Positions

Tahitian Princess

Operator: P & O Irish Sea Ltd

Last reported at 2019-Feb-16 04:30 UTC. Time now 2019-Feb-16 04:32 UTC.
Position N 53°20' W 006°04'.

Length 167 m; draft 5.7 m.

Type: Passenger vessel. MMSI: 310362000.

Date/timePositionNaut miles runAvg speedWind from/ knotsBaromVisibWave heightAir tempDewpointWater temp
2019-Feb-16 04:30N 53°20' W 006°04'917.9
2019-Feb-16 04:00N 53°24' W 005°50'4617.7
2019-Feb-16 01:23N 53°34' W 004°34'3818.9
2019-Feb-15 23:23N 53°33' W 003°30'719.4
2019-Feb-15 23:01N 53°32' W 003°18'817.0
2019-Feb-15 22:31N 53°29' W 003°05'3 6.1
2019-Feb-15 22:00N 53°27' W 003°01'0 0.9
2019-Feb-15 21:30N 53°27' W 003°01'0 0.0
2019-Feb-15 21:00N 53°27' W 003°01'0 0.0
2019-Feb-15 20:30N 53°27' W 003°01'0 0.0
2019-Feb-15 20:00N 53°27' W 003°01'0 0.0
2019-Feb-15 19:30N 53°27' W 003°01'0 0.0
2019-Feb-15 19:00N 53°27' W 003°01'0 0.0
2019-Feb-15 18:30N 53°27' W 003°01'0 0.0
2019-Feb-15 18:00N 53°27' W 003°01'0 0.0
2019-Feb-15 17:30N 53°27' W 003°01'0 0.0
2019-Feb-15 17:00N 53°27' W 003°01'0 0.5
2019-Feb-15 16:30N 53°27' W 003°01'0 0.7
2019-Feb-15 16:00N 53°27' W 003°01'612.5
2019-Feb-15 15:30N 53°32' W 003°08'918.6
2019-Feb-15 15:00N 53°31' W 003°23'1019.1
2019-Feb-15 14:30N 53°31' W 003°40'1019.2
2019-Feb-15 14:00N 53°33' W 003°55'1918.7
2019-Feb-15 12:58N 53°36' W 004°28'4918.2
2019-Feb-15 10:17N 53°24' W 005°48'618.5
2019-Feb-15 09:56N 53°22' W 005°58'715.9
2019-Feb-15 09:30N 53°21' W 006°09'2 5.0
2019-Feb-15 09:01N 53°21' W 006°13'0 0.0
2019-Feb-15 08:31N 53°21' W 006°13'0 0.0
2019-Feb-15 08:01N 53°21' W 006°13'0 0.0
2019-Feb-15 07:31N 53°21' W 006°13'0 0.0
2019-Feb-15 07:00N 53°21' W 006°13'0 0.0
2019-Feb-15 06:30N 53°21' W 006°13'0 0.0
2019-Feb-15 06:00N 53°21' W 006°13'0 0.0
2019-Feb-15 05:30N 53°21' W 006°13'0 0.2
2019-Feb-15 05:00N 53°21' W 006°13'4 7.6
2019-Feb-15 04:30N 53°20' W 006°07'816.5
2019-Feb-15 04:00N 53°23' W 005°53'917.3
2019-Feb-15 03:29N 53°25' W 005°39'817.6
2019-Feb-15 03:00N 53°27' W 005°25'1118.0
2019-Feb-15 02:23N 53°29' W 005°07'717.9
2019-Feb-15 02:00N 53°31' W 004°55'918.1
2019-Feb-15 01:28N 53°33' W 004°40'817.4
2019-Feb-15 01:00N 53°34' W 004°26'1016.3
2019-Feb-15 00:25N 53°34' W 004°10'816.8
2019-Feb-14 23:57N 53°34' W 003°57'1217.1
2019-Feb-14 23:17N 53°33' W 003°38'518.7
2019-Feb-14 23:01N 53°33' W 003°29'1019.0
2019-Feb-14 22:30N 53°31' W 003°13'816.3
2019-Feb-14 22:00N 53°27' W 003°02'0 0.7
2019-Feb-14 21:30N 53°27' W 003°01'0 0.9
2019-Feb-14 21:00N 53°27' W 003°01'0 0.0
2019-Feb-14 20:30N 53°27' W 003°01'0 0.0
2019-Feb-14 20:00N 53°27' W 003°01'0 0.0
2019-Feb-14 19:30N 53°27' W 003°01'0 0.0
2019-Feb-14 19:00N 53°27' W 003°01'0 0.0
2019-Feb-14 18:30N 53°27' W 003°01'0 0.0
2019-Feb-14 18:00N 53°27' W 003°01'0 0.0
2019-Feb-14 17:30N 53°27' W 003°01'0 0.0
2019-Feb-14 17:00N 53°27' W 003°01'0 0.8
2019-Feb-14 16:30N 53°27' W 003°01'0 0.4
2019-Feb-14 16:01N 53°27' W 003°01'510.0
2019-Feb-14 15:30N 53°31' W 003°07'918.0
2019-Feb-14 15:00N 53°31' W 003°22'1019.6
2019-Feb-14 14:30N 53°31' W 003°38'1019.8
2019-Feb-14 14:00N 53°33' W 003°54'7318.7
2019-Feb-14 10:05N 53°22' W 005°56'218.7
2019-Feb-14 10:00N 53°21' W 005°59'714.9
2019-Feb-14 09:30N 53°21' W 006°11'1 2.8
2019-Feb-14 09:00N 53°21' W 006°13'0 0.0
2019-Feb-14 08:30N 53°21' W 006°13'0 0.0
2019-Feb-14 08:00N 53°21' W 006°13'0 0.0
2019-Feb-14 07:30N 53°21' W 006°13'0 0.0
2019-Feb-14 07:00N 53°21' W 006°13'0 0.0
2019-Feb-14 06:30N 53°21' W 006°13'0 0.0
2019-Feb-14 06:00N 53°21' W 006°13'0 0.0
2019-Feb-14 05:30N 53°21' W 006°13'0 0.6
2019-Feb-14 05:00N 53°21' W 006°13'510.7
2019-Feb-14 04:30N 53°20' W 006°04'918.3
2019-Feb-14 04:00N 53°24' W 005°49'5017.1
2019-Feb-14 01:05N 53°34' W 004°27'2818.1
2019-Feb-13 23:31N 53°33' W 003°40'119.3
2019-Feb-13 23:27N 53°33' W 003°37'819.1
2019-Feb-13 23:00N 53°33' W 003°23'917.8
2019-Feb-13 22:30N 53°32' W 003°08'612.7
2019-Feb-13 22:01N 53°27' W 003°01'0 0.6
2019-Feb-13 21:30N 53°27' W 003°01'0 0.4
2019-Feb-13 21:01N 53°27' W 003°01'0 0.0
2019-Feb-13 20:30N 53°27' W 003°01'0 0.0
2019-Feb-13 20:00N 53°27' W 003°01'0 0.0
2019-Feb-13 19:31N 53°27' W 003°01'0 0.0
2019-Feb-13 19:00N 53°27' W 003°01'0 0.0
2019-Feb-13 18:31N 53°27' W 003°01'0 0.0
2019-Feb-13 18:00N 53°27' W 003°01'0 0.0
2019-Feb-13 17:31N 53°27' W 003°01'0 0.0
2019-Feb-13 17:01N 53°27' W 003°01'0 0.8
2019-Feb-13 16:30N 53°27' W 003°01'3 5.6
2019-Feb-13 16:00N 53°29' W 003°05'816.1
2019-Feb-13 15:31N 53°31' W 003°18'1019.6
2019-Feb-13 15:00N 53°31' W 003°34'7719.5
2019-Feb-13 11:04N 53°25' W 005°43'519.1
2019-Feb-13 10:47N 53°23' W 005°51'519.1
2019-Feb-13 10:30N 53°21' W 005°60'714.3
2019-Feb-13 10:00N 53°21' W 006°11'1 1.8
2019-Feb-13 09:28N 53°21' W 006°13'0 0.0
2019-Feb-13 09:01N 53°21' W 006°13'0 0.0
2019-Feb-13 08:30N 53°21' W 006°13'0 0.0
2019-Feb-13 08:01N 53°21' W 006°13'0 0.0
2019-Feb-13 07:31N 53°21' W 006°13'0 0.0
2019-Feb-13 07:00N 53°21' W 006°13'0 0.0
2019-Feb-13 06:31N 53°21' W 006°13'0 0.0
2019-Feb-13 06:01N 53°21' W 006°13'2 3.6
2019-Feb-13 05:30N 53°21' W 006°10'4 7.3
2019-Feb-13 05:00N 53°19' W 006°05'3 6.1
2019-Feb-13 04:30N 53°21' W 006°01'917.7
2019-Feb-13 04:00N 53°24' W 005°47'7817.1
2019-Feb-12 23:27N 53°33' W 003°37'818.3
2019-Feb-12 23:01N 53°33' W 003°24'816.9
2019-Feb-12 22:30N 53°32' W 003°09'713.7
2019-Feb-12 22:00N 53°27' W 003°01'0 0.1
2019-Feb-12 21:30N 53°27' W 003°01'0 0.8
2019-Feb-12 21:00N 53°27' W 003°01'0 0.0
2019-Feb-12 20:30N 53°27' W 003°01'0 0.0
2019-Feb-12 20:00N 53°27' W 003°01'0 0.0
2019-Feb-12 19:30N 53°27' W 003°01'0 0.0
2019-Feb-12 19:00N 53°27' W 003°01'0 0.0
2019-Feb-12 18:30N 53°27' W 003°01'0 0.0
2019-Feb-12 18:00N 53°27' W 003°01'0 0.0
2019-Feb-12 17:30N 53°27' W 003°01'0 0.0
2019-Feb-12 17:00N 53°27' W 003°01'0 0.8
2019-Feb-12 16:30N 53°27' W 003°01'0 0.4
2019-Feb-12 16:00N 53°27' W 003°01'510.3
2019-Feb-12 15:30N 53°31' W 003°07'917.4
2019-Feb-12 15:00N 53°31' W 003°21'1018.9
2019-Feb-12 14:30N 53°31' W 003°37'7818.6
2019-Feb-12 10:18N 53°24' W 005°48'519.0
2019-Feb-12 10:00N 53°22' W 005°57'815.6
2019-Feb-12 09:30N 53°21' W 006°10'2 3.4
2019-Feb-12 08:59N 53°21' W 006°13'0 0.0
2019-Feb-12 08:29N 53°21' W 006°13'0 0.0
2019-Feb-12 07:59N 53°21' W 006°13'0 0.0
2019-Feb-12 07:26N 53°21' W 006°13'0 0.0
2019-Feb-12 06:59N 53°21' W 006°13'0 0.0
2019-Feb-12 06:28N 53°21' W 006°13'0 0.0
2019-Feb-12 05:58N 53°21' W 006°13'0 0.0
2019-Feb-12 05:30N 53°21' W 006°13'1 1.9
2019-Feb-12 05:00N 53°21' W 006°12'713.8
2019-Feb-12 04:30N 53°21' W 006°00'918.8
2019-Feb-12 04:00N 53°24' W 005°45'7817.4
2019-Feb-11 23:33N 53°33' W 003°36'117.7
2019-Feb-11 23:30N 53°33' W 003°34'917.9
2019-Feb-11 23:00N 53°32' W 003°19'815.9
2019-Feb-11 22:30N 53°31' W 003°06'5 9.3
2019-Feb-11 22:00N 53°27' W 003°01'0 0.6
2019-Feb-11 21:31N 53°27' W 003°01'0 0.5
2019-Feb-11 21:00N 53°27' W 003°01'0 0.0
2019-Feb-11 20:30N 53°27' W 003°01'0 0.0
2019-Feb-11 20:00N 53°27' W 003°01'0 0.0
2019-Feb-11 19:30N 53°27' W 003°01'0 0.0
2019-Feb-11 19:00N 53°27' W 003°01'0 0.0
2019-Feb-11 18:30N 53°27' W 003°01'0 0.0
2019-Feb-11 18:00N 53°27' W 003°01'0 0.0
2019-Feb-11 17:30N 53°27' W 003°01'0 0.0
2019-Feb-11 17:00N 53°27' W 003°01'0 0.0
2019-Feb-11 16:30N 53°27' W 003°01'0 0.0
2019-Feb-11 16:00N 53°27' W 003°01'0 0.0
2019-Feb-11 15:30N 53°27' W 003°01'0 0.0
2019-Feb-11 15:00N 53°27' W 003°01'0 0.0
2019-Feb-11 14:30N 53°27' W 003°01'0 0.0
2019-Feb-11 14:00N 53°27' W 003°01'0 0.0
2019-Feb-11 13:30N 53°27' W 003°01'0 0.0
2019-Feb-11 13:00N 53°27' W 003°01'0 0.0
2019-Feb-11 12:30N 53°27' W 003°01'0 0.0
2019-Feb-11 12:00N 53°27' W 003°01'0 0.0
2019-Feb-11 11:30N 53°27' W 003°01'0 0.0
2019-Feb-11 11:00N 53°27' W 003°01'0 0.0
2019-Feb-11 10:30N 53°27' W 003°01'0 0.0
2019-Feb-11 10:00N 53°27' W 003°01'0 0.0
2019-Feb-11 09:30N 53°27' W 003°01'0 0.0
2019-Feb-11 09:00N 53°27' W 003°01'0 0.0
2019-Feb-11 08:30N 53°27' W 003°01'0 0.0
2019-Feb-11 08:00N 53°27' W 003°01'0 0.0
2019-Feb-11 07:30N 53°27' W 003°01'0 0.0
2019-Feb-11 07:00N 53°27' W 003°01'0 0.0
2019-Feb-11 06:30N 53°27' W 003°01'0 0.0
2019-Feb-11 06:00N 53°27' W 003°01'0 0.8
2019-Feb-11 05:30N 53°27' W 003°01'0 0.2
2019-Feb-11 05:00N 53°27' W 003°01'713.1
2019-Feb-11 04:31N 53°32' W 003°09'816.0
2019-Feb-11 04:00N 53°32' W 003°22'816.4
2019-Feb-11 03:30N 53°31' W 003°36'7917.8
2019-Feb-10 23:05N 53°24' W 005°48'319.6
2019-Feb-10 22:57N 53°23' W 005°52'819.2
2019-Feb-10 22:31N 53°20' W 006°05'5 9.4
2019-Feb-10 22:00N 53°21' W 006°13'0 0.0
2019-Feb-10 21:30N 53°21' W 006°13'0 0.0
2019-Feb-10 21:00N 53°21' W 006°13'0 0.0
2019-Feb-10 20:30N 53°21' W 006°13'0 0.0
2019-Feb-10 20:00N 53°21' W 006°13'0 0.0
2019-Feb-10 19:30N 53°21' W 006°13'0 0.0
2019-Feb-10 19:00N 53°21' W 006°13'0 0.0
2019-Feb-10 18:30N 53°21' W 006°13'0 0.1
2019-Feb-10 18:00N 53°21' W 006°13'2 4.9
2019-Feb-10 17:30N 53°21' W 006°09'816.3
2019-Feb-10 17:00N 53°22' W 005°55'8417.8
2019-Feb-10 12:18N 53°33' W 003°36'516.9
2019-Feb-10 12:00N 53°33' W 003°28'816.9
2019-Feb-10 11:30N 53°31' W 003°14'714.2
2019-Feb-10 11:00N 53°28' W 003°03'2 3.4
2019-Feb-10 10:30N 53°27' W 003°01'0 0.9
2019-Feb-10 10:00N 53°27' W 003°01'0 0.0
2019-Feb-10 09:28N 53°27' W 003°01'0 0.0
2019-Feb-10 08:58N 53°27' W 003°01'0 0.0
2019-Feb-10 08:28N 53°27' W 003°01'0 0.0
2019-Feb-10 07:58N 53°27' W 003°01'0 0.0
2019-Feb-10 07:28N 53°27' W 003°01'0 0.0
2019-Feb-10 06:58N 53°27' W 003°01'0 0.0
2019-Feb-10 06:28N 53°27' W 003°01'0 0.0
2019-Feb-10 05:58N 53°27' W 003°01'0 0.0
2019-Feb-10 05:28N 53°27' W 003°01'0 0.6
2019-Feb-10 05:00N 53°27' W 003°01'0 0.7
2019-Feb-10 04:30N 53°27' W 003°01'611.2
2019-Feb-10 04:00N 53°31' W 003°07'917.4
2019-Feb-10 03:30N 53°31' W 003°22'816.0
2019-Feb-10 03:00N 53°31' W 003°35'8216.7
2019-Feb-09 22:06N 53°23' W 005°52'117.0
2019-Feb-09 22:00N 53°23' W 005°54'816.5
2019-Feb-09 21:30N 53°20' W 006°08'3 6.5
2019-Feb-09 21:01N 53°21' W 006°13'0 0.0
2019-Feb-09 20:31N 53°21' W 006°13'0 0.0
2019-Feb-09 20:01N 53°21' W 006°13'0 0.0
2019-Feb-09 19:31N 53°21' W 006°13'0 0.0
2019-Feb-09 19:01N 53°21' W 006°13'0 0.0
2019-Feb-09 18:30N 53°21' W 006°13'0 0.0
2019-Feb-09 18:01N 53°21' W 006°13'0 0.0
2019-Feb-09 17:31N 53°21' W 006°13'3 6.5
2019-Feb-09 17:00N 53°21' W 006°08'917.5
2019-Feb-09 16:30N 53°23' W 005°53'8417.4
2019-Feb-09 11:41N 53°33' W 003°34'315.7
2019-Feb-09 11:30N 53°33' W 003°29'815.8
2019-Feb-09 11:00N 53°32' W 003°16'714.3
2019-Feb-09 10:31N 53°29' W 003°05'3 5.8
2019-Feb-09 10:00N 53°27' W 003°01'0 0.2
2019-Feb-09 09:30N 53°27' W 003°01'0 0.7
2019-Feb-09 09:00N 53°27' W 003°01'0 0.0
2019-Feb-09 08:30N 53°27' W 003°01'0 0.0
2019-Feb-09 08:01N 53°27' W 003°01'0 0.0
2019-Feb-09 07:30N 53°27' W 003°01'0 0.0
2019-Feb-09 07:00N 53°27' W 003°01'0 0.0
2019-Feb-09 06:31N 53°27' W 003°01'0 0.0
2019-Feb-09 06:00N 53°27' W 003°01'0 0.0
2019-Feb-09 05:31N 53°27' W 003°01'0 0.0
2019-Feb-09 05:01N 53°27' W 003°01'0 0.0
2019-Feb-09 04:30N 53°27' W 003°01'0 0.0
2019-Feb-09 04:01N 53°27' W 003°01'0 0.0
2019-Feb-09 03:30N 53°27' W 003°01'0 0.0
2019-Feb-09 03:00N 53°27' W 003°01'0 0.0
2019-Feb-09 02:30N 53°27' W 003°01'0 0.0
2019-Feb-09 02:00N 53°27' W 003°01'0 0.0
2019-Feb-09 01:31N 53°27' W 003°01'0 0.0
2019-Feb-09 01:00N 53°27' W 003°01'0 0.0
2019-Feb-09 00:30N 53°27' W 003°01'0 0.0
2019-Feb-09 00:00N 53°27' W 003°01'0 0.0
2019-Feb-08 23:31N 53°27' W 003°01'0 0.0
2019-Feb-08 23:00N 53°27' W 003°01'0 0.0
2019-Feb-08 22:30N 53°27' W 003°01'0 0.0
2019-Feb-08 22:01N 53°27' W 003°01'0 0.0
2019-Feb-08 21:30N 53°27' W 003°01'0 0.0
2019-Feb-08 21:00N 53°27' W 003°01'0 0.0
2019-Feb-08 20:30N 53°27' W 003°01'0 0.0
2019-Feb-08 20:01N 53°27' W 003°01'0 0.0
2019-Feb-08 19:30N 53°27' W 003°01'0 0.0
2019-Feb-08 19:00N 53°27' W 003°01'0 0.0
2019-Feb-08 18:30N 53°27' W 003°01'0 0.0
2019-Feb-08 18:00N 53°27' W 003°01'0 0.3
2019-Feb-08 17:31N 53°27' W 003°01'0 0.7
2019-Feb-08 17:00N 53°27' W 003°01'0 0.5
2019-Feb-08 16:30N 53°27' W 003°01'4 8.5
2019-Feb-08 16:01N 53°30' W 003°06'815.5
2019-Feb-08 15:30N 53°31' W 003°19'917.7
2019-Feb-08 15:00N 53°31' W 003°34'7417.8
2019-Feb-08 10:51N 53°18' W 005°36'917.8
2019-Feb-08 10:21N 53°19' W 005°51'618.0
2019-Feb-08 10:00N 53°20' W 006°01'713.7
2019-Feb-08 09:30N 53°21' W 006°12'1 1.1
2019-Feb-08 08:58N 53°21' W 006°13'0 0.0
2019-Feb-08 08:25N 53°21' W 006°13'0 0.0
2019-Feb-08 07:49N 53°21' W 006°13'0 0.0
2019-Feb-08 07:28N 53°21' W 006°13'0 0.0
2019-Feb-08 06:58N 53°21' W 006°13'0 0.0
2019-Feb-08 06:28N 53°21' W 006°13'0 0.0
2019-Feb-08 05:58N 53°21' W 006°13'0 0.0
2019-Feb-08 05:30N 53°21' W 006°13'2 3.9
2019-Feb-08 05:00N 53°21' W 006°10'815.9
2019-Feb-08 04:29N 53°22' W 005°56'1018.1
2019-Feb-08 03:58N 53°25' W 005°41'7617.6
2019-Feb-07 23:39N 53°33' W 003°34'217.8
2019-Feb-07 23:30N 53°33' W 003°30'917.7
2019-Feb-07 23:00N 53°31' W 003°16'714.8
2019-Feb-07 22:30N 53°29' W 003°04'2 4.9
2019-Feb-07 22:01N 53°27' W 003°01'0 0.9
2019-Feb-07 21:30N 53°27' W 003°01'0 0.0
2019-Feb-07 21:00N 53°27' W 003°01'0 0.0
2019-Feb-07 20:30N 53°27' W 003°01'0 0.0
2019-Feb-07 20:00N 53°27' W 003°01'0 0.0
2019-Feb-07 19:30N 53°27' W 003°01'0 0.0
2019-Feb-07 19:01N 53°27' W 003°01'0 0.0
2019-Feb-07 18:31N 53°27' W 003°01'0 0.0
2019-Feb-07 18:00N 53°27' W 003°01'0 0.0
2019-Feb-07 17:31N 53°27' W 003°01'0 0.0
2019-Feb-07 17:00N 53°27' W 003°01'0 0.8
2019-Feb-07 16:30N 53°27' W 003°01'0 0.2
2019-Feb-07 16:00N 53°27' W 003°01'611.3
2019-Feb-07 15:31N 53°31' W 003°07'816.7
2019-Feb-07 15:01N 53°31' W 003°21'917.8
2019-Feb-07 14:29N 53°31' W 003°37'8118.6
2019-Feb-07 10:07N 53°23' W 005°53'219.4
2019-Feb-07 10:00N 53°22' W 005°56'816.5
2019-Feb-07 09:30N 53°21' W 006°10'2 3.9
2019-Feb-07 09:00N 53°21' W 006°13'0 0.0
2019-Feb-07 08:30N 53°21' W 006°13'0 0.0
2019-Feb-07 08:01N 53°21' W 006°13'0 0.0
2019-Feb-07 07:30N 53°21' W 006°13'0 0.0
2019-Feb-07 07:01N 53°21' W 006°13'0 0.0
2019-Feb-07 06:31N 53°21' W 006°13'0 0.0
2019-Feb-07 06:00N 53°21' W 006°13'0 0.0
2019-Feb-07 05:30N 53°21' W 006°13'0 0.1
2019-Feb-07 05:00N 53°21' W 006°13'3 6.8
2019-Feb-07 04:30N 53°21' W 006°07'817.0
2019-Feb-07 04:00N 53°23' W 005°54'8317.7
2019-Feb-06 23:19N 53°33' W 003°36'518.0
2019-Feb-06 23:00N 53°33' W 003°26'917.7
2019-Feb-06 22:30N 53°31' W 003°12'815.0
2019-Feb-06 22:00N 53°27' W 003°02'0 0.7
2019-Feb-06 21:31N 53°27' W 003°01'0 0.9
2019-Feb-06 21:00N 53°27' W 003°01'0 0.0
2019-Feb-06 20:30N 53°27' W 003°01'0 0.0
2019-Feb-06 20:00N 53°27' W 003°01'0 0.0
2019-Feb-06 19:29N 53°27' W 003°01'0 0.0
2019-Feb-06 18:59N 53°27' W 003°01'0 0.0
2019-Feb-06 18:29N 53°27' W 003°01'0 0.0
2019-Feb-06 17:59N 53°27' W 003°01'0 0.0
2019-Feb-06 17:29N 53°27' W 003°01'0 0.0
2019-Feb-06 16:59N 53°27' W 003°01'0 0.5
2019-Feb-06 16:30N 53°27' W 003°01'0 0.7
2019-Feb-06 16:00N 53°27' W 003°01'611.0
2019-Feb-06 15:30N 53°31' W 003°07'816.4
2019-Feb-06 15:01N 53°31' W 003°21'917.7
2019-Feb-06 14:30N 53°31' W 003°36'8218.2
2019-Feb-06 10:00N 53°23' W 005°53'918.1
2019-Feb-06 09:30N 53°20' W 006°07'3 7.0
2019-Feb-06 09:00N 53°21' W 006°13'0 0.0
2019-Feb-06 08:19N 53°21' W 006°13'0 0.0
2019-Feb-06 07:46N 53°21' W 006°13'0 0.0
2019-Feb-06 07:29N 53°21' W 006°13'0 0.0
2019-Feb-06 07:00N 53°21' W 006°13'0 0.0
2019-Feb-06 06:30N 53°21' W 006°13'0 0.0
2019-Feb-06 06:00N 53°21' W 006°13'0 0.0
2019-Feb-06 05:30N 53°21' W 006°13'0 0.4
2019-Feb-06 05:00N 53°21' W 006°13'  
Track history (hours):
 
Tides and Currents Weather Stations Pressure Air Temp Water Temp Dewpoint Dewpoint Depression Visibility Wind Speed Wind Dir Waves Ship Positions

Tahitian Princess

Operator: P & O Irish Sea Ltd

Last reported at 2019-Feb-16 04:30 UTC. Time now 2019-Feb-16 04:32 UTC.
Position N 53°20' W 006°04'.

Length 167 m; draft 5.7 m.

Type: Passenger vessel. MMSI: 310362000.

Date/timePositionNaut miles runAvg speedWind from/ knotsBaromVisibWave heightAir tempDewpointWater temp
2019-Feb-16 04:30N 53°20' W 006°04'917.9
2019-Feb-16 04:00N 53°24' W 005°50'4617.7
2019-Feb-16 01:23N 53°34' W 004°34'3818.9
2019-Feb-15 23:23N 53°33' W 003°30'719.4
2019-Feb-15 23:01N 53°32' W 003°18'817.0
2019-Feb-15 22:31N 53°29' W 003°05'3 6.1
2019-Feb-15 22:00N 53°27' W 003°01'0 0.9
2019-Feb-15 21:30N 53°27' W 003°01'0 0.0
2019-Feb-15 21:00N 53°27' W 003°01'0 0.0
2019-Feb-15 20:30N 53°27' W 003°01'0 0.0
2019-Feb-15 20:00N 53°27' W 003°01'0 0.0
2019-Feb-15 19:30N 53°27' W 003°01'0 0.0
2019-Feb-15 19:00N 53°27' W 003°01'0 0.0
2019-Feb-15 18:30N 53°27' W 003°01'0 0.0
2019-Feb-15 18:00N 53°27' W 003°01'0 0.0
2019-Feb-15 17:30N 53°27' W 003°01'0 0.0
2019-Feb-15 17:00N 53°27' W 003°01'0 0.5
2019-Feb-15 16:30N 53°27' W 003°01'0 0.7
2019-Feb-15 16:00N 53°27' W 003°01'612.5
2019-Feb-15 15:30N 53°32' W 003°08'918.6
2019-Feb-15 15:00N 53°31' W 003°23'1019.1
2019-Feb-15 14:30N 53°31' W 003°40'1019.2
2019-Feb-15 14:00N 53°33' W 003°55'1918.7
2019-Feb-15 12:58N 53°36' W 004°28'4918.2
2019-Feb-15 10:17N 53°24' W 005°48'618.5
2019-Feb-15 09:56N 53°22' W 005°58'715.9
2019-Feb-15 09:30N 53°21' W 006°09'2 5.0
2019-Feb-15 09:01N 53°21' W 006°13'0 0.0
2019-Feb-15 08:31N 53°21' W 006°13'0 0.0
2019-Feb-15 08:01N 53°21' W 006°13'0 0.0
2019-Feb-15 07:31N 53°21' W 006°13'0 0.0
2019-Feb-15 07:00N 53°21' W 006°13'0 0.0
2019-Feb-15 06:30N 53°21' W 006°13'0 0.0
2019-Feb-15 06:00N 53°21' W 006°13'0 0.0
2019-Feb-15 05:30N 53°21' W 006°13'0 0.2
2019-Feb-15 05:00N 53°21' W 006°13'4 7.6
2019-Feb-15 04:30N 53°20' W 006°07'816.5
2019-Feb-15 04:00N 53°23' W 005°53'917.3
2019-Feb-15 03:29N 53°25' W 005°39'817.6
2019-Feb-15 03:00N 53°27' W 005°25'1118.0
2019-Feb-15 02:23N 53°29' W 005°07'717.9
2019-Feb-15 02:00N 53°31' W 004°55'918.1
2019-Feb-15 01:28N 53°33' W 004°40'817.4
2019-Feb-15 01:00N 53°34' W 004°26'1016.3
2019-Feb-15 00:25N 53°34' W 004°10'816.8
2019-Feb-14 23:57N 53°34' W 003°57'1217.1
2019-Feb-14 23:17N 53°33' W 003°38'518.7
2019-Feb-14 23:01N 53°33' W 003°29'1019.0
2019-Feb-14 22:30N 53°31' W 003°13'816.3
2019-Feb-14 22:00N 53°27' W 003°02'0 0.7
2019-Feb-14 21:30N 53°27' W 003°01'0 0.9
2019-Feb-14 21:00N 53°27' W 003°01'0 0.0
2019-Feb-14 20:30N 53°27' W 003°01'0 0.0
2019-Feb-14 20:00N 53°27' W 003°01'0 0.0
2019-Feb-14 19:30N 53°27' W 003°01'0 0.0
2019-Feb-14 19:00N 53°27' W 003°01'0 0.0
2019-Feb-14 18:30N 53°27' W 003°01'0 0.0
2019-Feb-14 18:00N 53°27' W 003°01'0 0.0
2019-Feb-14 17:30N 53°27' W 003°01'0 0.0
2019-Feb-14 17:00N 53°27' W 003°01'0 0.8
2019-Feb-14 16:30N 53°27' W 003°01'0 0.4
2019-Feb-14 16:01N 53°27' W 003°01'510.0
2019-Feb-14 15:30N 53°31' W 003°07'918.0
2019-Feb-14 15:00N 53°31' W 003°22'1019.6
2019-Feb-14 14:30N 53°31' W 003°38'1019.8
2019-Feb-14 14:00N 53°33' W 003°54'7318.7
2019-Feb-14 10:05N 53°22' W 005°56'218.7
2019-Feb-14 10:00N 53°21' W 005°59'714.9
2019-Feb-14 09:30N 53°21' W 006°11'1 2.8
2019-Feb-14 09:00N 53°21' W 006°13'0 0.0
2019-Feb-14 08:30N 53°21' W 006°13'0 0.0
2019-Feb-14 08:00N 53°21' W 006°13'0 0.0
2019-Feb-14 07:30N 53°21' W 006°13'0 0.0
2019-Feb-14 07:00N 53°21' W 006°13'0 0.0
2019-Feb-14 06:30N 53°21' W 006°13'0 0.0
2019-Feb-14 06:00N 53°21' W 006°13'0 0.0
2019-Feb-14 05:30N 53°21' W 006°13'0 0.6
2019-Feb-14 05:00N 53°21' W 006°13'510.7
2019-Feb-14 04:30N 53°20' W 006°04'918.3
2019-Feb-14 04:00N 53°24' W 005°49'5017.1
2019-Feb-14 01:05N 53°34' W 004°27'2818.1
2019-Feb-13 23:31N 53°33' W 003°40'119.3
2019-Feb-13 23:27N 53°33' W 003°37'819.1
2019-Feb-13 23:00N 53°33' W 003°23'917.8
2019-Feb-13 22:30N 53°32' W 003°08'612.7
2019-Feb-13 22:01N 53°27' W 003°01'0 0.6
2019-Feb-13 21:30N 53°27' W 003°01'0 0.4
2019-Feb-13 21:01N 53°27' W 003°01'0 0.0
2019-Feb-13 20:30N 53°27' W 003°01'0 0.0
2019-Feb-13 20:00N 53°27' W 003°01'0 0.0
2019-Feb-13 19:31N 53°27' W 003°01'0 0.0
2019-Feb-13 19:00N 53°27' W 003°01'0 0.0
2019-Feb-13 18:31N 53°27' W 003°01'0 0.0
2019-Feb-13 18:00N 53°27' W 003°01'0 0.0
2019-Feb-13 17:31N 53°27' W 003°01'0 0.0
2019-Feb-13 17:01N 53°27' W 003°01'0 0.8
2019-Feb-13 16:30N 53°27' W 003°01'3 5.6
2019-Feb-13 16:00N 53°29' W 003°05'816.1
2019-Feb-13 15:31N 53°31' W 003°18'1019.6
2019-Feb-13 15:00N 53°31' W 003°34'7719.5
2019-Feb-13 11:04N 53°25' W 005°43'519.1
2019-Feb-13 10:47N 53°23' W 005°51'519.1
2019-Feb-13 10:30N 53°21' W 005°60'714.3
2019-Feb-13 10:00N 53°21' W 006°11'1 1.8
2019-Feb-13 09:28N 53°21' W 006°13'0 0.0
2019-Feb-13 09:01N 53°21' W 006°13'0 0.0
2019-Feb-13 08:30N 53°21' W 006°13'0 0.0
2019-Feb-13 08:01N 53°21' W 006°13'0 0.0
2019-Feb-13 07:31N 53°21' W 006°13'0 0.0
2019-Feb-13 07:00N 53°21' W 006°13'0 0.0
2019-Feb-13 06:31N 53°21' W 006°13'0 0.0
2019-Feb-13 06:01N 53°21' W 006°13'2 3.6
2019-Feb-13 05:30N 53°21' W 006°10'4 7.3
2019-Feb-13 05:00N 53°19' W 006°05'3 6.1
2019-Feb-13 04:30N 53°21' W 006°01'917.7
2019-Feb-13 04:00N 53°24' W 005°47'7817.1
2019-Feb-12 23:27N 53°33' W 003°37'818.3
2019-Feb-12 23:01N 53°33' W 003°24'816.9
2019-Feb-12 22:30N 53°32' W 003°09'713.7
2019-Feb-12 22:00N 53°27' W 003°01'0 0.1
2019-Feb-12 21:30N 53°27' W 003°01'0 0.8
2019-Feb-12 21:00N 53°27' W 003°01'0 0.0
2019-Feb-12 20:30N 53°27' W 003°01'0 0.0
2019-Feb-12 20:00N 53°27' W 003°01'0 0.0
2019-Feb-12 19:30N 53°27' W 003°01'0 0.0
2019-Feb-12 19:00N 53°27' W 003°01'0 0.0
2019-Feb-12 18:30N 53°27' W 003°01'0 0.0
2019-Feb-12 18:00N 53°27' W 003°01'0 0.0
2019-Feb-12 17:30N 53°27' W 003°01'0 0.0
2019-Feb-12 17:00N 53°27' W 003°01'0 0.8
2019-Feb-12 16:30N 53°27' W 003°01'0 0.4
2019-Feb-12 16:00N 53°27' W 003°01'510.3
2019-Feb-12 15:30N 53°31' W 003°07'917.4
2019-Feb-12 15:00N 53°31' W 003°21'1018.9
2019-Feb-12 14:30N 53°31' W 003°37'7818.6
2019-Feb-12 10:18N 53°24' W 005°48'519.0
2019-Feb-12 10:00N 53°22' W 005°57'815.6
2019-Feb-12 09:30N 53°21' W 006°10'2 3.4
2019-Feb-12 08:59N 53°21' W 006°13'0 0.0
2019-Feb-12 08:29N 53°21' W 006°13'0 0.0
2019-Feb-12 07:59N 53°21' W 006°13'0 0.0
2019-Feb-12 07:26N 53°21' W 006°13'0 0.0
2019-Feb-12 06:59N 53°21' W 006°13'0 0.0
2019-Feb-12 06:28N 53°21' W 006°13'0 0.0
2019-Feb-12 05:58N 53°21' W 006°13'0 0.0
2019-Feb-12 05:30N 53°21' W 006°13'1 1.9
2019-Feb-12 05:00N 53°21' W 006°12'713.8
2019-Feb-12 04:30N 53°21' W 006°00'918.8
2019-Feb-12 04:00N 53°24' W 005°45'7817.4
2019-Feb-11 23:33N 53°33' W 003°36'117.7
2019-Feb-11 23:30N 53°33' W 003°34'917.9
2019-Feb-11 23:00N 53°32' W 003°19'815.9
2019-Feb-11 22:30N 53°31' W 003°06'5 9.3
2019-Feb-11 22:00N 53°27' W 003°01'0 0.6
2019-Feb-11 21:31N 53°27' W 003°01'0 0.5
2019-Feb-11 21:00N 53°27' W 003°01'0 0.0
2019-Feb-11 20:30N 53°27' W 003°01'0 0.0
2019-Feb-11 20:00N 53°27' W 003°01'0 0.0
2019-Feb-11 19:30N 53°27' W 003°01'0 0.0
2019-Feb-11 19:00N 53°27' W 003°01'0 0.0
2019-Feb-11 18:30N 53°27' W 003°01'0 0.0
2019-Feb-11 18:00N 53°27' W 003°01'0 0.0
2019-Feb-11 17:30N 53°27' W 003°01'0 0.0
2019-Feb-11 17:00N 53°27' W 003°01'0 0.0
2019-Feb-11 16:30N 53°27' W 003°01'0 0.0
2019-Feb-11 16:00N 53°27' W 003°01'0 0.0
2019-Feb-11 15:30N 53°27' W 003°01'0 0.0
2019-Feb-11 15:00N 53°27' W 003°01'0 0.0
2019-Feb-11 14:30N 53°27' W 003°01'0 0.0
2019-Feb-11 14:00N 53°27' W 003°01'0 0.0
2019-Feb-11 13:30N 53°27' W 003°01'0 0.0
2019-Feb-11 13:00N 53°27' W 003°01'0 0.0
2019-Feb-11 12:30N 53°27' W 003°01'0 0.0
2019-Feb-11 12:00N 53°27' W 003°01'0 0.0
2019-Feb-11 11:30N 53°27' W 003°01'0 0.0
2019-Feb-11 11:00N 53°27' W 003°01'0 0.0
2019-Feb-11 10:30N 53°27' W 003°01'0 0.0
2019-Feb-11 10:00N 53°27' W 003°01'0 0.0
2019-Feb-11 09:30N 53°27' W 003°01'0 0.0
2019-Feb-11 09:00N 53°27' W 003°01'0 0.0
2019-Feb-11 08:30N 53°27' W 003°01'0 0.0
2019-Feb-11 08:00N 53°27' W 003°01'0 0.0
2019-Feb-11 07:30N 53°27' W 003°01'0 0.0
2019-Feb-11 07:00N 53°27' W 003°01'0 0.0
2019-Feb-11 06:30N 53°27' W 003°01'0 0.0
2019-Feb-11 06:00N 53°27' W 003°01'0 0.8
2019-Feb-11 05:30N 53°27' W 003°01'0 0.2
2019-Feb-11 05:00N 53°27' W 003°01'713.1
2019-Feb-11 04:31N 53°32' W 003°09'816.0
2019-Feb-11 04:00N 53°32' W 003°22'816.4
2019-Feb-11 03:30N 53°31' W 003°36'7917.8
2019-Feb-10 23:05N 53°24' W 005°48'319.6
2019-Feb-10 22:57N 53°23' W 005°52'819.2
2019-Feb-10 22:31N 53°20' W 006°05'5 9.4
2019-Feb-10 22:00N 53°21' W 006°13'0 0.0
2019-Feb-10 21:30N 53°21' W 006°13'0 0.0
2019-Feb-10 21:00N 53°21' W 006°13'0 0.0
2019-Feb-10 20:30N 53°21' W 006°13'0 0.0
2019-Feb-10 20:00N 53°21' W 006°13'0 0.0
2019-Feb-10 19:30N 53°21' W 006°13'0 0.0
2019-Feb-10 19:00N 53°21' W 006°13'0 0.0
2019-Feb-10 18:30N 53°21' W 006°13'0 0.1
2019-Feb-10 18:00N 53°21' W 006°13'2 4.9
2019-Feb-10 17:30N 53°21' W 006°09'816.3
2019-Feb-10 17:00N 53°22' W 005°55'8417.8
2019-Feb-10 12:18N 53°33' W 003°36'516.9
2019-Feb-10 12:00N 53°33' W 003°28'816.9
2019-Feb-10 11:30N 53°31' W 003°14'714.2
2019-Feb-10 11:00N 53°28' W 003°03'2 3.4
2019-Feb-10 10:30N 53°27' W 003°01'0 0.9
2019-Feb-10 10:00N 53°27' W 003°01'0 0.0
2019-Feb-10 09:28N 53°27' W 003°01'0 0.0
2019-Feb-10 08:58N 53°27' W 003°01'0 0.0
2019-Feb-10 08:28N 53°27' W 003°01'0 0.0
2019-Feb-10 07:58N 53°27' W 003°01'0 0.0
2019-Feb-10 07:28N 53°27' W 003°01'0 0.0
2019-Feb-10 06:58N 53°27' W 003°01'0 0.0
2019-Feb-10 06:28N 53°27' W 003°01'0 0.0
2019-Feb-10 05:58N 53°27' W 003°01'0 0.0
2019-Feb-10 05:28N 53°27' W 003°01'0 0.6
2019-Feb-10 05:00N 53°27' W 003°01'0 0.7
2019-Feb-10 04:30N 53°27' W 003°01'611.2
2019-Feb-10 04:00N 53°31' W 003°07'917.4
2019-Feb-10 03:30N 53°31' W 003°22'816.0
2019-Feb-10 03:00N 53°31' W 003°35'8216.7
2019-Feb-09 22:06N 53°23' W 005°52'117.0
2019-Feb-09 22:00N 53°23' W 005°54'816.5
2019-Feb-09 21:30N 53°20' W 006°08'3 6.5
2019-Feb-09 21:01N 53°21' W 006°13'0 0.0
2019-Feb-09 20:31N 53°21' W 006°13'0 0.0
2019-Feb-09 20:01N 53°21' W 006°13'0 0.0
2019-Feb-09 19:31N 53°21' W 006°13'0 0.0
2019-Feb-09 19:01N 53°21' W 006°13'0 0.0
2019-Feb-09 18:30N 53°21' W 006°13'0 0.0
2019-Feb-09 18:01N 53°21' W 006°13'0 0.0
2019-Feb-09 17:31N 53°21' W 006°13'3 6.5
2019-Feb-09 17:00N 53°21' W 006°08'917.5
2019-Feb-09 16:30N 53°23' W 005°53'8417.4
2019-Feb-09 11:41N 53°33' W 003°34'315.7
2019-Feb-09 11:30N 53°33' W 003°29'815.8
2019-Feb-09 11:00N 53°32' W 003°16'714.3
2019-Feb-09 10:31N 53°29' W 003°05'3 5.8
2019-Feb-09 10:00N 53°27' W 003°01'0 0.2
2019-Feb-09 09:30N 53°27' W 003°01'0 0.7
2019-Feb-09 09:00N 53°27' W 003°01'0 0.0
2019-Feb-09 08:30N 53°27' W 003°01'0 0.0
2019-Feb-09 08:01N 53°27' W 003°01'0 0.0
2019-Feb-09 07:30N 53°27' W 003°01'0 0.0
2019-Feb-09 07:00N 53°27' W 003°01'0 0.0
2019-Feb-09 06:31N 53°27' W 003°01'0 0.0
2019-Feb-09 06:00N 53°27' W 003°01'0 0.0
2019-Feb-09 05:31N 53°27' W 003°01'0 0.0
2019-Feb-09 05:01N 53°27' W 003°01'0 0.0
2019-Feb-09 04:30N 53°27' W 003°01'0 0.0
2019-Feb-09 04:01N 53°27' W 003°01'0 0.0
2019-Feb-09 03:30N 53°27' W 003°01'0 0.0
2019-Feb-09 03:00N 53°27' W 003°01'0 0.0
2019-Feb-09 02:30N 53°27' W 003°01'0 0.0
2019-Feb-09 02:00N 53°27' W 003°01'0 0.0
2019-Feb-09 01:31N 53°27' W 003°01'0 0.0
2019-Feb-09 01:00N 53°27' W 003°01'0 0.0
2019-Feb-09 00:30N 53°27' W 003°01'0 0.0
2019-Feb-09 00:00N 53°27' W 003°01'0 0.0
2019-Feb-08 23:31N 53°27' W 003°01'0 0.0
2019-Feb-08 23:00N 53°27' W 003°01'0 0.0
2019-Feb-08 22:30N 53°27' W 003°01'0 0.0
2019-Feb-08 22:01N 53°27' W 003°01'0 0.0
2019-Feb-08 21:30N 53°27' W 003°01'0 0.0
2019-Feb-08 21:00N 53°27' W 003°01'0 0.0
2019-Feb-08 20:30N 53°27' W 003°01'0 0.0
2019-Feb-08 20:01N 53°27' W 003°01'0 0.0
2019-Feb-08 19:30N 53°27' W 003°01'0 0.0
2019-Feb-08 19:00N 53°27' W 003°01'0 0.0
2019-Feb-08 18:30N 53°27' W 003°01'0 0.0
2019-Feb-08 18:00N 53°27' W 003°01'0 0.3
2019-Feb-08 17:31N 53°27' W 003°01'0 0.7
2019-Feb-08 17:00N 53°27' W 003°01'0 0.5
2019-Feb-08 16:30N 53°27' W 003°01'4 8.5
2019-Feb-08 16:01N 53°30' W 003°06'815.5
2019-Feb-08 15:30N 53°31' W 003°19'917.7
2019-Feb-08 15:00N 53°31' W 003°34'7417.8
2019-Feb-08 10:51N 53°18' W 005°36'917.8
2019-Feb-08 10:21N 53°19' W 005°51'618.0
2019-Feb-08 10:00N 53°20' W 006°01'713.7
2019-Feb-08 09:30N 53°21' W 006°12'1 1.1
2019-Feb-08 08:58N 53°21' W 006°13'0 0.0
2019-Feb-08 08:25N 53°21' W 006°13'0 0.0
2019-Feb-08 07:49N 53°21' W 006°13'0 0.0
2019-Feb-08 07:28N 53°21' W 006°13'0 0.0
2019-Feb-08 06:58N 53°21' W 006°13'0 0.0
2019-Feb-08 06:28N 53°21' W 006°13'0 0.0
2019-Feb-08 05:58N 53°21' W 006°13'0 0.0
2019-Feb-08 05:30N 53°21' W 006°13'2 3.9
2019-Feb-08 05:00N 53°21' W 006°10'815.9
2019-Feb-08 04:29N 53°22' W 005°56'1018.1
2019-Feb-08 03:58N 53°25' W 005°41'7617.6
2019-Feb-07 23:39N 53°33' W 003°34'217.8
2019-Feb-07 23:30N 53°33' W 003°30'917.7
2019-Feb-07 23:00N 53°31' W 003°16'714.8
2019-Feb-07 22:30N 53°29' W 003°04'2 4.9
2019-Feb-07 22:01N 53°27' W 003°01'0 0.9
2019-Feb-07 21:30N 53°27' W 003°01'0 0.0
2019-Feb-07 21:00N 53°27' W 003°01'0 0.0
2019-Feb-07 20:30N 53°27' W 003°01'0 0.0
2019-Feb-07 20:00N 53°27' W 003°01'0 0.0
2019-Feb-07 19:30N 53°27' W 003°01'0 0.0
2019-Feb-07 19:01N 53°27' W 003°01'0 0.0
2019-Feb-07 18:31N 53°27' W 003°01'0 0.0
2019-Feb-07 18:00N 53°27' W 003°01'0 0.0
2019-Feb-07 17:31N 53°27' W 003°01'0 0.0
2019-Feb-07 17:00N 53°27' W 003°01'0 0.8
2019-Feb-07 16:30N 53°27' W 003°01'0 0.2
2019-Feb-07 16:00N 53°27' W 003°01'611.3
2019-Feb-07 15:31N 53°31' W 003°07'816.7
2019-Feb-07 15:01N 53°31' W 003°21'917.8
2019-Feb-07 14:29N 53°31' W 003°37'8118.6
2019-Feb-07 10:07N 53°23' W 005°53'219.4
2019-Feb-07 10:00N 53°22' W 005°56'816.5
2019-Feb-07 09:30N 53°21' W 006°10'2 3.9
2019-Feb-07 09:00N 53°21' W 006°13'0 0.0
2019-Feb-07 08:30N 53°21' W 006°13'0 0.0
2019-Feb-07 08:01N 53°21' W 006°13'0 0.0
2019-Feb-07 07:30N 53°21' W 006°13'0 0.0
2019-Feb-07 07:01N 53°21' W 006°13'0 0.0
2019-Feb-07 06:31N 53°21' W 006°13'0 0.0
2019-Feb-07 06:00N 53°21' W 006°13'0 0.0
2019-Feb-07 05:30N 53°21' W 006°13'0 0.1
2019-Feb-07 05:00N 53°21' W 006°13'3 6.8
2019-Feb-07 04:30N 53°21' W 006°07'817.0
2019-Feb-07 04:00N 53°23' W 005°54'8317.7
2019-Feb-06 23:19N 53°33' W 003°36'518.0
2019-Feb-06 23:00N 53°33' W 003°26'917.7
2019-Feb-06 22:30N 53°31' W 003°12'815.0
2019-Feb-06 22:00N 53°27' W 003°02'0 0.7
2019-Feb-06 21:31N 53°27' W 003°01'0 0.9
2019-Feb-06 21:00N 53°27' W 003°01'0 0.0
2019-Feb-06 20:30N 53°27' W 003°01'0 0.0
2019-Feb-06 20:00N 53°27' W 003°01'0 0.0
2019-Feb-06 19:29N 53°27' W 003°01'0 0.0
2019-Feb-06 18:59N 53°27' W 003°01'0 0.0
2019-Feb-06 18:29N 53°27' W 003°01'0 0.0
2019-Feb-06 17:59N 53°27' W 003°01'0 0.0
2019-Feb-06 17:29N 53°27' W 003°01'0 0.0
2019-Feb-06 16:59N 53°27' W 003°01'0 0.5
2019-Feb-06 16:30N 53°27' W 003°01'0 0.7
2019-Feb-06 16:00N 53°27' W 003°01'611.0
2019-Feb-06 15:30N 53°31' W 003°07'816.4
2019-Feb-06 15:01N 53°31' W 003°21'917.7
2019-Feb-06 14:30N 53°31' W 003°36'8218.2
2019-Feb-06 10:00N 53°23' W 005°53'918.1
2019-Feb-06 09:30N 53°20' W 006°07'3 7.0
2019-Feb-06 09:00N 53°21' W 006°13'0 0.0
2019-Feb-06 08:19N 53°21' W 006°13'0 0.0
2019-Feb-06 07:46N 53°21' W 006°13'0 0.0
2019-Feb-06 07:29N 53°21' W 006°13'0 0.0
2019-Feb-06 07:00N 53°21' W 006°13'0 0.0
2019-Feb-06 06:30N 53°21' W 006°13'0 0.0
2019-Feb-06 06:00N 53°21' W 006°13'0 0.0
2019-Feb-06 05:30N 53°21' W 006°13'0 0.4
2019-Feb-06 05:00N 53°21' W 006°13'  

Dump ship's entire track history